Time;durP1;ratioP1;P1;durP2;ratioP2;P2;SDS_P1;SDS_P2;PMS_P1;PMS_P2;Temp;Humidity;BMP_temperature;BMP_pressure;BME280_temperature;BME280_humidity;BME280_pressure;Samples;Min_cycle;Max_cycle;Signal;HPM_P1;HPM_P2
2022/09/04 00:00:58;;;;;;;2.10;2.00;;;19.80;58.60;;;;;;20606;6874;117918;-88
2022/09/04 00:03:34;;;;;;;5.60;3.17;;;19.50;59.00;;;;;;20610;6874;117375;-88
2022/09/04 00:05:58;;;;;;;2.97;2.87;;;19.30;59.40;;;;;;20617;6874;117277;-86
2022/09/04 00:08:44;;;;;;;2.83;2.72;;;19.20;60.00;;;;;;20423;6874;282489;-89
2022/09/04 00:11:36;;;;;;;2.80;2.70;;;19.40;59.30;;;;;;20612;6874;117649;-87
2022/09/04 00:14:05;;;;;;;3.40;3.30;;;19.60;59.00;;;;;;20405;6873;324596;-89
2022/09/04 00:16:51;;;;;;;3.67;3.40;;;19.50;58.90;;;;;;20409;6873;307442;-90
2022/09/04 00:19:33;;;;;;;4.77;3.07;;;19.90;58.40;;;;;;20603;6873;117438;-88
2022/09/04 00:21:59;;;;;;;3.20;3.00;;;19.60;58.50;;;;;;20590;6873;117330;-89
2022/09/04 00:24:24;;;;;;;4.07;3.57;;;19.30;59.40;;;;;;20422;6874;280795;-87
2022/09/04 00:27:09;;;;;;;4.30;3.93;;;19.50;59.00;;;;;;20388;6874;308533;-86
2022/09/04 00:29:48;;;;;;;4.20;3.90;;;19.80;58.30;;;;;;20390;6874;307971;-89
2022/09/04 00:32:37;;;;;;;3.40;3.20;;;20.00;57.90;;;;;;20627;6874;117440;-86
2022/09/04 00:35:09;;;;;;;3.97;3.70;;;19.80;58.30;;;;;;20383;6874;308323;-86
2022/09/04 00:37:51;;;;;;;3.53;3.30;;;19.90;57.90;;;;;;20615;6874;117801;-86
2022/09/04 00:40:24;;;;;;;3.20;2.95;;;19.70;58.30;;;;;;20415;6874;341604;-86
2022/09/04 00:43:05;;;;;;;3.90;3.70;;;19.80;58.60;;;;;;20404;6874;316488;-86
2022/09/04 00:45:31;;;;;;;3.73;3.43;;;20.10;57.70;;;;;;20426;6874;308543;-86
2022/09/04 00:48:16;;;;;;;4.60;4.30;;;20.30;57.20;;;;;;20404;6874;337674;-88
2022/09/04 00:50:55;;;;;;;5.77;4.63;;;20.20;57.90;;;;;;20616;6874;117291;-88
2022/09/04 00:53:50;;;;;;;5.50;5.10;;;20.10;57.80;;;;;;20423;6874;278591;-88
2022/09/04 00:56:24;;;;;;;5.60;5.00;;;20.40;57.70;;;;;;19618;6874;308208;-87
2022/09/04 00:59:23;;;;;;;4.57;4.18;;;20.50;57.30;;;;;;20373;6874;308978;-91
2022/09/04 01:01:50;;;;;;;4.00;3.72;;;20.50;57.30;;;;;;19785;6874;309445;-89
2022/09/04 01:04:28;;;;;;;3.97;3.77;;;20.60;57.10;;;;;;20629;6874;118358;-86
2022/09/04 01:07:22;;;;;;;4.37;4.00;;;20.30;57.80;;;;;;20392;6874;282450;-86
2022/09/04 01:10:22;;;;;;;4.43;4.10;;;20.30;57.80;;;;;;20619;6874;117429;-89
2022/09/04 01:13:07;;;;;;;4.60;4.20;;;20.00;58.30;;;;;;20383;6874;313706;-86
2022/09/04 01:15:33;;;;;;;4.33;3.93;;;20.00;58.60;;;;;;20407;6874;308093;-89
2022/09/04 01:18:05;;;;;;;3.80;3.60;;;20.20;58.00;;;;;;20618;6874;117310;-89
2022/09/04 01:20:54;;;;;;;4.63;3.80;;;20.00;58.40;;;;;;20610;6874;117645;-88
2022/09/04 01:23:30;;;;;;;5.00;4.03;;;19.70;59.20;;;;;;20323;6872;118802;-89
2022/09/04 01:26:35;;;;;;;4.70;4.35;;;19.30;59.80;;;;;;20380;6873;312973;-86
2022/09/04 01:29:20;;;;;;;4.03;3.83;;;19.50;59.60;;;;;;20609;6873;123198;-86
2022/09/04 01:32:12;;;;;;;4.20;4.00;;;19.30;59.60;;;;;;20634;6873;117893;-90
2022/09/04 01:34:51;;;;;;;4.25;4.05;;;19.20;59.60;;;;;;20424;6874;313804;-89
2022/09/04 01:37:40;;;;;;;5.13;4.70;;;19.20;59.60;;;;;;20395;6874;307670;-88
2022/09/04 01:40:29;;;;;;;4.30;4.10;;;19.60;58.50;;;;;;20623;6874;117807;-87
2022/09/04 01:43:01;;;;;;;3.90;3.70;;;19.40;58.70;;;;;;20610;6874;117835;-88
2022/09/04 01:45:41;;;;;;;4.07;3.70;;;19.10;59.60;;;;;;20621;6874;117508;-89
2022/09/04 01:48:09;;;;;;;14.17;3.60;;;18.80;60.20;;;;;;20583;6874;118026;-89
2022/09/04 01:50:31;;;;;;;4.47;3.60;;;18.70;60.80;;;;;;20404;6874;342341;-88
2022/09/04 01:53:09;;;;;;;3.90;3.60;;;18.90;60.30;;;;;;20604;6874;121142;-87
2022/09/04 01:56:03;;;;;;;19.40;4.62;;;19.00;60.20;;;;;;20409;6874;308744;-88
2022/09/04 01:58:46;;;;;;;35.83;5.10;;;19.20;59.40;;;;;;20611;6874;117359;-87
2022/09/04 02:01:19;;;;;;;158.00;6.50;;;19.10;59.50;;;;;;20394;6874;280250;-87
2022/09/04 02:03:47;;;;;;;15.80;3.90;;;19.30;59.70;;;;;;20381;6874;306178;-89
2022/09/04 02:06:22;;;;;;;7.53;3.03;;;19.60;59.30;;;;;;20400;6874;283648;-87
2022/09/04 02:08:53;;;;;;;115.37;5.18;;;19.80;58.70;;;;;;20378;6874;279024;-87
2022/09/04 02:11:17;;;;;;;52.40;4.10;;;20.00;58.10;;;;;;19697;6874;295560;-87
2022/09/04 02:14:07;;;;;;;4.67;2.50;;;20.10;57.90;;;;;;20617;6874;117999;-87
2022/09/04 02:16:44;;;;;;;4.60;2.80;;;19.80;58.40;;;;;;20611;6874;117394;-87
2022/09/04 02:19:29;;;;;;;2.83;2.63;;;19.40;59.30;;;;;;20607;6874;119926;-87
2022/09/04 02:21:55;;;;;;;3.40;3.20;;;19.10;60.00;;;;;;20406;6874;279210;-87
2022/09/04 02:24:34;;;;;;;3.62;3.42;;;19.30;59.30;;;;;;20394;6874;298978;-87
2022/09/04 02:27:02;;;;;;;3.20;3.00;;;19.50;58.60;;;;;;20387;6874;279168;-87
2022/09/04 02:29:48;;;;;;;3.50;3.30;;;19.70;58.00;;;;;;20398;6874;283748;-87
2022/09/04 02:32:36;;;;;;;3.77;3.57;;;19.90;57.90;;;;;;20420;6874;279419;-87
2022/09/04 02:35:02;;;;;;;3.47;3.37;;;20.10;57.80;;;;;;20597;6872;118292;-89
2022/09/04 02:37:51;;;;;;;3.17;2.97;;;19.70;58.30;;;;;;19917;6873;117798;-87
2022/09/04 02:40:31;;;;;;;4.00;3.70;;;19.40;59.20;;;;;;19887;6873;308692;-86
2022/09/04 02:43:29;;;;;;;4.13;3.73;;;19.40;59.10;;;;;;20397;6873;307099;-87
2022/09/04 02:46:08;;;;;;;3.00;2.90;;;19.70;57.80;;;;;;20631;6874;117913;-87
2022/09/04 02:48:56;;;;;;;3.07;2.87;;;19.40;58.20;;;;;;20623;6874;117778;-87
2022/09/04 02:51:37;;;;;;;3.50;3.20;;;18.70;59.60;;;;;;20614;6874;117873;-86
2022/09/04 02:54:29;;;;;;;3.30;3.10;;;18.50;60.00;;;;;;20602;6874;117199;-86
2022/09/04 02:57:22;;;;;;;3.23;3.03;;;18.50;60.00;;;;;;20391;6874;307079;-88
2022/09/04 02:59:49;;;;;;;3.40;3.13;;;18.80;59.40;;;;;;20616;6874;117524;-88
2022/09/04 03:02:22;;;;;;;3.03;2.83;;;18.90;58.70;;;;;;20387;6874;279321;-86
2022/09/04 03:04:57;;;;;;;3.93;3.73;;;18.90;58.70;;;;;;20389;6874;284915;-87
2022/09/04 03:07:42;;;;;;;3.53;3.23;;;19.20;58.60;;;;;;20603;6874;117812;-87
2022/09/04 03:10:08;;;;;;;5.40;3.40;;;19.10;58.80;;;;;;20414;6874;317022;-87
2022/09/04 03:12:34;;;;;;;6.00;3.47;;;19.40;58.00;;;;;;20406;6874;308540;-87
2022/09/04 03:15:00;;;;;;;32.07;3.60;;;19.40;58.00;;;;;;20595;6874;117793;-86
2022/09/04 03:17:46;;;;;;;10.75;2.80;;;19.20;58.30;;;;;;20382;6874;315517;-87
2022/09/04 03:20:21;;;;;;;5.22;2.53;;;19.30;58.60;;;;;;20414;6874;307118;-88
2022/09/04 03:23:03;;;;;;;44.92;3.42;;;19.40;58.10;;;;;;20426;6874;308527;-88
2022/09/04 03:25:48;;;;;;;12.90;2.97;;;19.60;57.70;;;;;;20403;6874;338213;-87
2022/09/04 03:28:17;;;;;;;8.60;2.77;;;19.70;57.40;;;;;;20648;6874;117601;-87
2022/09/04 03:30:43;;;;;;;2.90;2.70;;;19.40;58.00;;;;;;20453;6874;310557;-87
2022/09/04 03:33:11;;;;;;;8.25;3.00;;;19.30;58.30;;;;;;20440;6874;309055;-87
2022/09/04 03:35:51;;;;;;;2.40;2.30;;;19.50;58.00;;;;;;20414;6874;306582;-87
2022/09/04 03:38:28;;;;;;;4.20;2.70;;;19.60;57.60;;;;;;19776;6874;309904;-87
2022/09/04 03:41:05;;;;;;;3.27;2.63;;;19.70;56.90;;;;;;20697;6874;116919;-86
2022/09/04 03:43:42;;;;;;;2.80;2.70;;;19.40;57.60;;;;;;20653;6874;118752;-88
2022/09/04 03:46:37;;;;;;;3.03;2.60;;;19.00;58.60;;;;;;20702;6872;116391;-87
2022/09/04 03:49:34;;;;;;;3.03;2.87;;;18.70;59.30;;;;;;20444;6873;295613;-88
2022/09/04 03:52:08;;;;;;;2.90;2.80;;;18.90;59.10;;;;;;19616;6873;278963;-88
2022/09/04 03:54:55;;;;;;;3.03;2.93;;;19.40;57.60;;;;;;20418;6873;318374;-88
2022/09/04 03:57:43;;;;;;;3.60;3.37;;;19.40;57.60;;;;;;20399;6873;308323;-86
2022/09/04 04:00:09;;;;;;;3.37;3.17;;;19.60;57.50;;;;;;20630;6874;118064;-86
2022/09/04 04:02:55;;;;;;;3.95;3.75;;;19.30;58.20;;;;;;20398;6874;278344;-86
2022/09/04 04:05:28;;;;;;;3.37;3.10;;;19.30;58.20;;;;;;20622;6874;118659;-86
2022/09/04 04:08:15;;;;;;;3.57;3.47;;;19.10;58.70;;;;;;20390;6874;307813;-87
2022/09/04 04:10:47;;;;;;;3.27;3.07;;;19.00;58.40;;;;;;20393;6874;278013;-86
2022/09/04 04:13:39;;;;;;;6.00;2.60;;;19.30;57.80;;;;;;20621;6874;117609;-86
2022/09/04 04:16:21;;;;;;;4.17;2.70;;;19.00;58.00;;;;;;20629;6874;118328;-86
2022/09/04 04:18:59;;;;;;;2.20;2.10;;;18.60;58.70;;;;;;19589;7211;119055;-86
2022/09/04 04:22:03;;;;;;;3.17;2.43;;;18.30;59.40;;;;;;20459;6874;117547;-86
2022/09/04 04:24:53;;;;;;;2.80;2.70;;;18.00;60.00;;;;;;20600;6874;117457;-86
2022/09/04 04:27:27;;;;;;;3.03;2.90;;;17.80;60.60;;;;;;20420;6874;278910;-86
2022/09/04 04:29:56;;;;;;;2.80;2.35;;;18.10;60.60;;;;;;20370;6874;307968;-86
2022/09/04 04:32:42;;;;;;;10.82;2.40;;;18.50;58.90;;;;;;20413;6874;308077;-89
2022/09/04 04:35:25;;;;;;;200.60;5.57;;;18.80;57.40;;;;;;20398;6874;281102;-86
2022/09/04 04:38:21;;;;;;;155.10;4.73;;;18.60;57.90;;;;;;20615;6874;117678;-88
2022/09/04 04:41:03;;;;;;;209.87;5.90;;;18.60;57.80;;;;;;20414;6874;309018;-88
2022/09/04 04:43:48;;;;;;;45.73;3.40;;;18.60;58.00;;;;;;20405;6874;280168;-87
2022/09/04 04:46:19;;;;;;;4.80;2.50;;;18.50;58.60;;;;;;20631;6874;117442;-88
2022/09/04 04:49:21;;;;;;;2.30;2.20;;;18.50;58.20;;;;;;20417;6874;307715;-86
2022/09/04 04:52:20;;;;;;;2.90;2.80;;;18.50;57.80;;;;;;20417;6874;308048;-87
2022/09/04 04:55:07;;;;;;;9.00;3.30;;;18.70;57.70;;;;;;20628;6874;117186;-86
2022/09/04 04:57:44;;;;;;;3.30;3.20;;;18.40;58.30;;;;;;19912;6874;118502;-86
2022/09/04 05:00:18;;;;;;;3.20;3.10;;;18.10;59.40;;;;;;20405;6873;282879;-86
2022/09/04 05:02:50;;;;;;;3.50;3.30;;;18.20;59.80;;;;;;20407;6873;312893;-86
2022/09/04 05:05:14;;;;;;;3.07;2.97;;;18.50;59.00;;;;;;20368;6873;307873;-86
2022/09/04 05:07:44;;;;;;;2.87;2.67;;;18.80;58.50;;;;;;20604;6873;117314;-86
2022/09/04 05:10:26;;;;;;;2.83;2.73;;;18.30;59.20;;;;;;20587;6874;117597;-86
2022/09/04 05:13:29;;;;;;;3.30;3.20;;;18.30;59.20;;;;;;20390;6874;308539;-86
2022/09/04 05:16:04;;;;;;;3.00;2.80;;;18.50;59.00;;;;;;20413;6874;278803;-86
2022/09/04 05:18:36;;;;;;;3.03;2.67;;;18.70;58.00;;;;;;20417;6874;281679;-86
2022/09/04 05:21:22;;;;;;;2.95;2.80;;;19.00;56.90;;;;;;20401;6874;278178;-86
2022/09/04 05:23:57;;;;;;;2.65;2.55;;;19.00;56.90;;;;;;20407;6874;279011;-86
2022/09/04 05:26:50;;;;;;;2.20;2.10;;;19.10;56.60;;;;;;20593;6874;123726;-88
2022/09/04 05:29:35;;;;;;;4.10;2.50;;;18.80;57.10;;;;;;20427;6874;285390;-86
2022/09/04 05:32:11;;;;;;;2.70;2.50;;;18.70;56.70;;;;;;19924;6874;307554;-86
2022/09/04 05:34:39;;;;;;;2.90;2.70;;;18.90;56.70;;;;;;20397;6874;342168;-86
2022/09/04 05:37:10;;;;;;;2.80;2.70;;;19.00;57.00;;;;;;20248;6874;307719;-86
2022/09/04 05:39:58;;;;;;;2.80;2.70;;;19.10;56.60;;;;;;20583;6874;117851;-86
2022/09/04 05:42:57;;;;;;;2.75;2.65;;;18.90;57.20;;;;;;20425;6874;279050;-86
2022/09/04 05:45:47;;;;;;;2.63;2.53;;;18.70;58.20;;;;;;20625;6874;118245;-86
2022/09/04 05:48:32;;;;;;;2.93;2.77;;;18.40;59.10;;;;;;20091;6874;119878;-86
2022/09/04 05:51:24;;;;;;;2.63;2.53;;;18.40;59.10;;;;;;20609;6874;118597;-86
2022/09/04 05:54:11;;;;;;;2.83;2.73;;;18.20;59.90;;;;;;20630;6874;121781;-86
2022/09/04 05:57:00;;;;;;;3.43;3.23;;;18.00;61.00;;;;;;20617;6874;117458;-86
2022/09/04 05:59:36;;;;;;;3.87;3.67;;;17.90;60.90;;;;;;20397;6874;300421;-86
2022/09/04 06:02:24;;;;;;;4.00;3.73;;;18.30;61.20;;;;;;20618;6874;121333;-86
2022/09/04 06:05:10;;;;;;;4.07;3.87;;;18.40;60.90;;;;;;20609;6874;118306;-87
2022/09/04 06:07:36;;;;;;;4.20;3.80;;;18.20;61.30;;;;;;20625;6874;117209;-88
2022/09/04 06:10:24;;;;;;;5.07;3.23;;;18.10;62.00;;;;;;20608;6872;117817;-87
2022/09/04 06:13:07;;;;;;;2.50;2.33;;;18.60;62.10;;;;;;20100;6873;337692;-86
2022/09/04 06:16:00;;;;;;;1.93;1.83;;;18.90;62.10;;;;;;20603;6873;117912;-87
2022/09/04 06:18:29;;;;;;;1.97;1.87;;;18.90;62.00;;;;;;20639;6873;118669;-88
2022/09/04 06:20:58;;;;;;;15.23;2.50;;;19.10;62.20;;;;;;20384;6874;341823;-88
2022/09/04 06:23:43;;;;;;;38.97;3.40;;;19.40;59.60;;;;;;20633;6874;117685;-87
2022/09/04 06:26:41;;;;;;;47.93;3.60;;;19.70;59.80;;;;;;20408;6874;308164;-86
2022/09/04 06:29:17;;;;;;;2.60;2.50;;;20.00;58.10;;;;;;20382;6874;283203;-88
2022/09/04 06:31:47;;;;;;;2.72;2.53;;;20.80;56.40;;;;;;20429;6874;308205;-86
2022/09/04 06:34:35;;;;;;;2.40;2.20;;;20.70;56.30;;;;;;20411;6874;337687;-86
2022/09/04 06:37:24;;;;;;;10.07;2.77;;;20.90;55.70;;;;;;20623;6874;117808;-86
2022/09/04 06:39:59;;;;;;;6.80;2.50;;;20.80;56.00;;;;;;20637;6874;117535;-87
2022/09/04 06:42:52;;;;;;;35.57;3.47;;;20.30;57.10;;;;;;20623;6874;118114;-87
2022/09/04 06:45:24;;;;;;;65.00;4.77;;;20.30;57.10;;;;;;20637;6874;123698;-87
2022/09/04 06:48:20;;;;;;;4.57;3.40;;;20.10;57.50;;;;;;20403;6874;296798;-87
2022/09/04 06:51:09;;;;;;;3.50;3.20;;;20.40;57.10;;;;;;20619;6874;117309;-87
2022/09/04 06:53:55;;;;;;;3.33;3.20;;;20.40;57.10;;;;;;20582;6874;118788;-91
2022/09/04 06:56:41;;;;;;;3.00;2.80;;;20.30;57.60;;;;;;20605;6874;121316;-88
2022/09/04 06:59:26;;;;;;;4.07;3.80;;;20.30;58.00;;;;;;19803;6874;283729;-88
2022/09/04 07:02:09;;;;;;;4.35;4.05;;;20.70;57.40;;;;;;20418;6874;313224;-89
2022/09/04 07:04:47;;;;;;;5.87;4.00;;;21.10;56.20;;;;;;20611;6874;117208;-85
2022/09/04 07:07:22;;;;;;;4.00;3.90;;;21.30;56.40;;;;;;19791;6874;308546;-92
2022/09/04 07:10:08;;;;;;;4.20;3.90;;;21.50;55.50;;;;;;20425;6874;308598;-92
2022/09/04 07:12:40;;;;;;;3.80;3.60;;;21.80;55.80;;;;;;20066;6874;312683;-89
2022/09/04 07:15:27;;;;;;;3.53;3.33;;;22.50;55.30;;;;;;20371;6874;341954;-90
2022/09/04 07:18:11;;;;;;;3.50;3.30;;;22.50;54.60;;;;;;20412;6874;341392;-90
2022/09/04 07:20:51;;;;;;;3.13;3.00;;;22.60;54.10;;;;;;20633;6874;117144;-91
2022/09/04 07:23:33;;;;;;;2.90;2.80;;;22.60;54.10;;;;;;20625;6873;117427;-89
2022/09/04 07:26:09;;;;;;;3.47;3.28;;;22.40;54.70;;;;;;20418;6873;337680;-91
2022/09/04 07:28:41;;;;;;;3.13;3.03;;;22.60;54.40;;;;;;20646;6873;117449;-92
2022/09/04 07:31:23;;;;;;;3.03;2.93;;;22.70;54.60;;;;;;20606;6873;118137;-95
2022/09/04 07:34:12;;;;;;;2.50;2.40;;;22.70;55.10;;;;;;20619;6874;117770;-92
2022/09/04 07:36:37;;;;;;;3.33;3.12;;;22.60;55.50;;;;;;20436;6874;307755;-87
2022/09/04 07:39:03;;;;;;;3.17;2.97;;;23.00;54.10;;;;;;20403;6874;278255;-90
2022/09/04 07:41:30;;;;;;;3.20;2.90;;;23.50;53.50;;;;;;20611;6874;117468;-90
2022/09/04 07:44:07;;;;;;;2.50;2.40;;;23.60;53.60;;;;;;20609;6874;117781;-88
2022/09/04 07:46:46;;;;;;;3.13;2.93;;;23.60;53.90;;;;;;20416;6874;313062;-89
2022/09/04 07:49:35;;;;;;;2.87;2.70;;;23.90;53.20;;;;;;19590;6874;121855;-88
2022/09/04 07:52:21;;;;;;;2.93;2.73;;;23.90;53.20;;;;;;20438;6874;311222;-88
2022/09/04 07:54:49;;;;;;;3.00;2.80;;;24.30;52.00;;;;;;20468;6874;306791;-90
2022/09/04 07:57:36;;;;;;;3.10;2.70;;;25.00;51.30;;;;;;20449;6874;313208;-90
2022/09/04 08:00:09;;;;;;;2.37;2.27;;;25.00;51.40;;;;;;20696;6874;116534;-91
2022/09/04 08:02:33;;;;;;;3.03;2.93;;;25.00;51.70;;;;;;20414;6874;116945;-89
2022/09/04 08:05:22;;;;;;;2.80;2.60;;;24.70;52.30;;;;;;20553;6885;117264;-91
2022/09/04 08:08:02;;;;;;;2.80;2.60;;;24.70;52.30;;;;;;20405;6870;309297;-88
2022/09/04 08:10:43;;;;;;;2.60;2.40;;;25.00;51.80;;;;;;20508;6870;116806;-88
2022/09/04 08:13:48;;;;;;;2.60;2.50;;;25.20;52.00;;;;;;20632;6870;159165;-90
2022/09/04 08:16:16;;;;;;;2.78;2.67;;;25.10;52.50;;;;;;20428;6870;341122;-88
2022/09/04 08:19:02;;;;;;;2.50;2.33;;;25.50;50.80;;;;;;20624;6870;117163;-88
2022/09/04 08:21:38;;;;;;;2.57;2.43;;;25.70;51.00;;;;;;20380;6885;309430;-89
2022/09/04 08:24:43;;;;;;;2.75;2.60;;;25.90;49.20;;;;;;20336;6885;338290;-87
2022/09/04 08:27:39;;;;;;;2.40;2.30;;;26.30;48.10;;;;;;20569;6882;117317;-88
2022/09/04 08:30:07;;;;;;;2.43;2.33;;;26.30;49.00;;;;;;20364;6885;288356;-88
2022/09/04 08:32:57;;;;;;;2.47;2.27;;;26.50;47.10;;;;;;20591;6883;117255;-91
2022/09/04 08:35:46;;;;;;;2.20;2.10;;;26.60;48.20;;;;;;20789;6644;117341;-88
2022/09/04 08:38:43;;;;;;;3.00;2.75;;;26.70;47.60;;;;;;20566;6750;335837;-89
2022/09/04 08:41:44;;;;;;;2.20;2.10;;;26.80;48.40;;;;;;20736;6789;117118;-87
2022/09/04 08:44:49;;;;;;;2.30;2.20;;;26.70;48.30;;;;;;20566;6732;306633;-88
2022/09/04 08:47:38;;;;;;;2.13;2.03;;;27.00;45.90;;;;;;20667;6808;116104;-88
2022/09/04 08:51:05;;;;;;;;;;;;;;;;;;;;;
2022/09/04 08:54:07;;;;;;;2.10;2.00;;;27.30;46.00;;;;;;20726;6765;117332;-88
2022/09/04 08:57:15;;;;;;;2.63;2.20;;;27.30;46.60;;;;;;20343;6767;116342;-90
2022/09/04 09:00:00;;;;;;;2.90;2.10;;;27.20;46.70;;;;;;20070;6752;67733;-90
2022/09/04 09:02:43;;;;;;;2.10;1.80;;;27.10;47.00;;;;;;20928;6757;116873;-86
2022/09/04 09:05:52;;;;;;;2.00;1.90;;;27.10;47.30;;;;;;20817;6720;117720;-86
2022/09/04 09:08:56;;;;;;;1.77;1.67;;;27.10;47.10;;;;;;20782;6724;304257;-87
2022/09/04 09:11:48;;;;;;;;;;;;;;;;;;;;;
2022/09/04 09:14:53;;;;;;;1.70;1.60;;;28.10;43.30;;;;;;20831;6744;116164;-86
2022/09/04 09:17:39;;;;;;;1.87;1.77;;;28.20;44.30;;;;;;20664;6739;306107;-86
2022/09/04 09:20:48;;;;;;;2.00;1.90;;;28.50;44.10;;;;;;20675;6738;285599;-86
2022/09/04 09:23:36;;;;;;;3.20;1.97;;;28.80;42.80;;;;;;20626;6754;305077;-87
2022/09/04 09:26:22;;;;;;;2.17;1.70;;;29.10;42.40;;;;;;20648;6731;314420;-87
2022/09/04 09:29:20;;;;;;;2.10;1.80;;;29.20;42.70;;;;;;20659;6735;308353;-87
2022/09/04 09:32:16;;;;;;;1.92;1.85;;;29.30;41.90;;;;;;20699;6725;338936;-88
2022/09/04 09:35:07;;;;;;;2.30;1.80;;;29.40;40.20;;;;;;20532;6739;312936;-89
2022/09/04 09:38:01;;;;;;;1.97;1.87;;;29.40;40.50;;;;;;20332;6805;117963;-88
2022/09/04 09:40:54;;;;;;;1.90;1.80;;;29.20;40.50;;;;;;20673;6749;305457;-88
2022/09/04 09:43:46;;;;;;;2.10;1.70;;;29.10;40.50;;;;;;20623;6750;277243;-87
2022/09/04 09:46:44;;;;;;;1.67;1.58;;;29.30;42.20;;;;;;20669;6737;307013;-87
2022/09/04 09:49:49;;;;;;;1.80;1.80;;;29.60;41.90;;;;;;20884;6726;117368;-87
2022/09/04 09:52:44;;;;;;;1.80;1.70;;;29.50;42.10;;;;;;19886;6778;119437;-88
2022/09/04 09:55:46;;;;;;;2.10;1.77;;;29.10;42.10;;;;;;20574;6728;323240;-87
2022/09/04 09:58:35;;;;;;;4.33;1.80;;;29.20;40.00;;;;;;20669;6744;306200;-86
2022/09/04 10:01:24;;;;;;;1.70;1.60;;;29.80;40.20;;;;;;20673;6726;281021;-87
2022/09/04 10:04:17;;;;;;;1.50;1.40;;;29.80;40.10;;;;;;20745;6725;119184;-87
2022/09/04 10:07:18;;;;;;;2.50;1.27;;;29.70;40.50;;;;;;20842;6743;117675;-86
2022/09/04 10:10:10;;;;;;;1.60;1.50;;;29.50;41.20;;;;;;20537;6758;277811;-86
2022/09/04 10:13:15;;;;;;;1.77;1.67;;;29.70;39.30;;;;;;20815;6756;66137;-86
2022/09/04 10:16:21;;;;;;;1.20;1.20;;;29.70;40.00;;;;;;20866;6740;117377;-86
2022/09/04 10:19:19;;;;;;;1.50;1.40;;;29.60;39.90;;;;;;20676;6730;305899;-89
2022/09/04 10:22:29;;;;;;;1.70;1.60;;;30.20;36.90;;;;;;20642;6738;306120;-89
2022/09/04 10:25:24;;;;;;;1.42;1.35;;;30.20;36.90;;;;;;20444;6752;308420;-88
2022/09/04 10:28:19;;;;;;;1.73;1.40;;;30.40;37.90;;;;;;20818;6755;117231;-86
2022/09/04 10:31:11;;;;;;;1.60;1.50;;;30.20;38.20;;;;;;20626;6740;318984;-86
2022/09/04 10:34:27;;;;;;;1.27;1.20;;;30.10;39.10;;;;;;20551;6755;279608;-87
2022/09/04 10:37:35;;;;;;;1.20;1.20;;;30.30;38.10;;;;;;20854;6732;123499;-87
2022/09/04 10:40:49;;;;;;;1.50;1.33;;;30.20;39.20;;;;;;20624;6745;309250;-86
2022/09/04 10:43:36;;;;;;;1.40;1.40;;;30.30;38.20;;;;;;20937;6734;117187;-90
2022/09/04 10:46:21;;;;;;;1.17;1.13;;;30.30;38.40;;;;;;20783;6740;116594;-88
2022/09/04 10:49:06;;;;;;;1.47;1.40;;;30.10;38.10;;;;;;20735;6751;118183;-89
2022/09/04 10:52:03;;;;;;;1.30;1.20;;;30.00;38.50;;;;;;20366;6802;117541;-91
2022/09/04 10:54:57;;;;;;;1.50;1.40;;;29.80;38.50;;;;;;20974;6619;116040;-88
2022/09/04 10:57:58;;;;;;;1.27;1.17;;;29.80;38.50;;;;;;20825;6767;117582;-92
2022/09/04 11:00:48;;;;;;;2.77;1.30;;;29.70;36.10;;;;;;20518;6765;309353;-90
2022/09/04 11:03:33;;;;;;;1.10;1.10;;;29.70;35.30;;;;;;20689;6786;117563;-87
2022/09/04 11:06:48;;;;;;;2.10;1.33;;;29.70;36.40;;;;;;20588;6757;336595;-85
2022/09/04 11:09:44;;;;;;;1.83;1.40;;;29.80;36.80;;;;;;20624;6747;305744;-86
2022/09/04 11:12:28;;;;;;;1.63;1.30;;;30.10;36.70;;;;;;20844;6742;116968;-88
2022/09/04 11:15:35;;;;;;;1.50;1.40;;;30.00;35.80;;;;;;20504;6722;307180;-87
2022/09/04 11:18:32;;;;;;;1.17;1.17;;;30.00;35.80;;;;;;20929;6723;118006;-86
2022/09/04 11:21:13;;;;;;;1.07;1.07;;;29.70;37.00;;;;;;19832;7075;123261;-85
2022/09/04 11:24:08;;;;;;;1.70;1.60;;;29.40;37.60;;;;;;20314;6794;279775;-87
2022/09/04 11:26:47;;;;;;;1.30;1.30;;;29.50;37.70;;;;;;20728;6723;306340;-88
2022/09/04 11:29:29;;;;;;;1.43;1.40;;;29.90;37.20;;;;;;20691;6723;305709;-87
2022/09/04 11:32:38;;;;;;;1.57;1.50;;;30.10;34.50;;;;;;20883;6779;123655;-85
2022/09/04 11:35:37;;;;;;;1.27;1.10;;;30.00;35.60;;;;;;20712;6723;124653;-87
2022/09/04 11:38:42;;;;;;;1.23;1.23;;;29.60;36.50;;;;;;20929;6723;116125;-87
2022/09/04 11:41:42;;;;;;;3.53;1.30;;;29.60;36.40;;;;;;20914;6723;117345;-86
2022/09/04 11:44:30;;;;;;;1.47;1.37;;;29.40;36.40;;;;;;20864;6723;117832;-86
2022/09/04 11:47:29;;;;;;;1.30;1.20;;;29.20;36.50;;;;;;20665;6779;298089;-88
2022/09/04 11:50:33;;;;;;;1.10;1.10;;;29.40;35.30;;;;;;20926;6723;71846;-87
2022/09/04 11:53:20;;;;;;;1.27;1.27;;;29.50;35.80;;;;;;20939;6723;116693;-86
2022/09/04 11:56:21;;;;;;;1.10;1.10;;;29.50;36.20;;;;;;20464;6779;66473;-85
2022/09/04 11:59:05;;;;;;;1.40;1.30;;;29.50;37.80;;;;;;20995;6723;115742;-90
2022/09/04 12:02:01;;;;;;;1.30;1.30;;;29.90;36.80;;;;;;20718;6723;275363;-87
2022/09/04 12:04:43;;;;;;;1.47;1.30;;;29.80;36.70;;;;;;20332;6723;308136;-87
2022/09/04 12:07:42;;;;;;;1.10;1.10;;;30.30;35.20;;;;;;20877;6738;117093;-86
2022/09/04 12:10:41;;;;;;;1.27;1.17;;;30.40;35.50;;;;;;20827;6722;117351;-86
2022/09/04 12:13:17;;;;;;;1.30;1.20;;;30.10;34.90;;;;;;20910;6722;116939;-85
2022/09/04 12:15:59;;;;;;;1.50;1.40;;;30.10;34.80;;;;;;20934;6723;123002;-85
2022/09/04 12:18:54;;;;;;;1.50;1.40;;;30.00;35.00;;;;;;19944;6794;279501;-86
2022/09/04 12:22:03;;;;;;;1.43;1.40;;;30.20;34.30;;;;;;20936;6722;117129;-85
2022/09/04 12:25:05;;;;;;;1.43;1.37;;;30.20;34.50;;;;;;20791;6722;116941;-85
2022/09/04 12:28:04;;;;;;;1.57;1.47;;;29.90;35.00;;;;;;20930;6723;116953;-84
2022/09/04 12:30:53;;;;;;;1.33;1.20;;;29.50;35.40;;;;;;20924;6723;118001;-85
2022/09/04 12:33:51;;;;;;;1.13;1.03;;;29.50;35.40;;;;;;20919;6723;120426;-86
2022/09/04 12:36:50;;;;;;;1.37;1.27;;;29.40;36.30;;;;;;20736;6723;276616;-85
2022/09/04 12:39:35;;;;;;;1.50;1.40;;;29.60;35.50;;;;;;20218;6779;276141;-86
2022/09/04 12:42:27;;;;;;;1.60;1.50;;;30.00;34.40;;;;;;20719;6723;306904;-85
2022/09/04 12:45:26;;;;;;;1.33;1.30;;;30.20;34.60;;;;;;20569;6723;318040;-87
2022/09/04 12:48:28;;;;;;;1.20;1.10;;;30.30;34.00;;;;;;20629;6779;277052;-85
2022/09/04 12:51:13;;;;;;;1.63;1.53;;;30.40;34.50;;;;;;20820;6753;117978;-86
2022/09/04 12:54:02;;;;;;;1.37;1.27;;;30.20;35.20;;;;;;20654;6738;277998;-87
2022/09/04 12:57:05;;;;;;;1.52;1.50;;;30.10;34.20;;;;;;20663;6723;336117;-88
2022/09/04 12:59:49;;;;;;;2.73;1.50;;;30.20;33.60;;;;;;20730;6723;276751;-88
2022/09/04 13:02:58;;;;;;;1.30;1.20;;;30.30;34.50;;;;;;20944;6723;116921;-88
2022/09/04 13:05:47;;;;;;;1.33;1.23;;;30.10;35.30;;;;;;20738;6723;118018;-87
2022/09/04 13:08:28;;;;;;;1.40;1.33;;;29.70;35.70;;;;;;20942;6723;120802;-89
2022/09/04 13:11:07;;;;;;;1.47;1.40;;;29.40;36.30;;;;;;20925;6723;118937;-87
2022/09/04 13:13:50;;;;;;;4.13;1.17;;;29.20;36.80;;;;;;20627;6779;118955;-87
2022/09/04 13:16:26;;;;;;;1.33;1.23;;;29.00;37.10;;;;;;20656;6723;276213;-87
2022/09/04 13:19:10;;;;;;;1.35;1.25;;;29.20;36.60;;;;;;20702;6723;334132;-87
2022/09/04 13:22:13;;;;;;;;;;;;;;;;;;;;;
2022/09/04 13:24:50;;;;;;;1.60;1.50;;;29.30;35.50;;;;;;20756;6722;117495;-87
2022/09/04 13:30:08;;;;;;;1.53;1.53;;;29.10;35.90;;;;;;20614;6723;116935;-87
2022/09/04 13:32:43;;;;;;;3.23;1.50;;;29.10;35.70;;;;;;20910;6779;122809;-86
2022/09/04 13:35:40;;;;;;;1.13;1.13;;;28.80;36.40;;;;;;20673;6723;117522;-86
2022/09/04 13:38:31;;;;;;;1.60;1.40;;;28.70;36.40;;;;;;20901;6723;116909;-86
2022/09/04 13:41:32;;;;;;;2.70;1.40;;;28.80;37.70;;;;;;20321;6737;310686;-87
2022/09/04 13:44:49;;;;;;;;;;;;;;;;;;;;;
2022/09/04 13:47:24;;;;;;;1.50;1.40;;;29.20;35.20;;;;;;20705;6723;305520;-87
2022/09/04 13:50:16;;;;;;;1.20;1.10;;;29.40;35.20;;;;;;20943;6723;120314;-89
2022/09/04 13:52:56;;;;;;;1.40;1.30;;;29.40;35.20;;;;;;20859;6723;117422;-87
2022/09/04 13:55:39;;;;;;;1.20;1.20;;;29.00;35.40;;;;;;20493;6835;307923;-87
2022/09/04 13:58:38;;;;;;;1.33;1.23;;;29.10;35.10;;;;;;20712;6723;334926;-87
2022/09/04 14:01:14;;;;;;;1.70;1.30;;;29.30;34.40;;;;;;20918;6723;117257;-87
2022/09/04 14:03:49;;;;;;;1.63;1.53;;;29.10;35.10;;;;;;20583;6742;277676;-87
2022/09/04 14:06:34;;;;;;;;;;;;;;;;;;;;;
2022/09/04 14:09:03;;;;;;;1.42;1.42;;;29.30;33.80;;;;;;20595;6723;277063;-87
2022/09/04 14:11:51;;;;;;;1.50;1.40;;;29.50;34.00;;;;;;20892;6738;117209;-87
2022/09/04 14:14:29;;;;;;;1.40;1.30;;;29.30;34.90;;;;;;20560;6723;308627;-87
2022/09/04 15:49:39;;;;;;;1.57;1.47;;;26.90;40.20;;;;;;21248;6514;276136;-91
2022/09/04 15:52:11;;;;;;;1.60;1.50;;;27.10;37.30;;;;;;20677;6791;320828;-88